Time;durP1;ratioP1;P1;durP2;ratioP2;P2;SDS_P1;SDS_P2;PMS_P1;PMS_P2;Temp;Humidity;BMP_temperature;BMP_pressure;BME280_temperature;BME280_humidity;BME280_pressure;Samples;Min_cycle;Max_cycle;Signal;HPM_P1;HPM_P2
2022/04/18 00:00:37;;;;;;;3.30;3.00;;;9.50;38.40;;;;;;5059526;28;20184;-40
2022/04/18 00:03:04;;;;;;;4.40;3.70;;;9.50;38.40;;;;;;5060676;28;20186;-39
2022/04/18 00:05:33;;;;;;;3.97;3.57;;;9.40;38.20;;;;;;5059779;28;20201;-39
2022/04/18 00:07:59;;;;;;;4.50;3.63;;;9.40;38.10;;;;;;5059590;28;20560;-38
2022/04/18 00:10:25;;;;;;;3.03;2.73;;;9.30;38.10;;;;;;5059500;28;20425;-38
2022/04/18 00:12:51;;;;;;;3.97;3.57;;;9.30;38.50;;;;;;5059409;28;20409;-39
2022/04/18 00:15:17;;;;;;;4.00;3.40;;;9.20;38.90;;;;;;5041605;28;20753;-37
2022/04/18 00:17:43;;;;;;;5.53;4.23;;;9.20;39.20;;;;;;5059022;28;20430;-38
2022/04/18 00:20:09;;;;;;;7.63;6.83;;;9.20;39.40;;;;;;5040950;28;20285;-38
2022/04/18 00:22:35;;;;;;;9.33;8.23;;;9.10;39.90;;;;;;5060157;28;20478;-39
2022/04/18 00:25:01;;;;;;;8.80;8.00;;;9.10;39.60;;;;;;5059668;28;20438;-38
2022/04/18 00:27:27;;;;;;;9.70;7.53;;;9.00;39.70;;;;;;5058112;28;20409;-39
2022/04/18 00:29:52;;;;;;;6.87;6.07;;;8.90;39.70;;;;;;5058066;28;20211;-38
2022/04/18 00:32:19;;;;;;;8.37;6.30;;;8.90;39.80;;;;;;5059366;28;20198;-39
2022/04/18 00:34:44;;;;;;;7.10;5.70;;;8.90;40.00;;;;;;5059249;28;20548;-39
2022/04/18 00:37:10;;;;;;;7.10;5.27;;;8.80;40.00;;;;;;5059047;28;20421;-39
2022/04/18 00:39:36;;;;;;;4.30;3.80;;;8.80;40.00;;;;;;5058376;28;20221;-38
2022/04/18 00:42:01;;;;;;;6.70;5.53;;;8.80;40.10;;;;;;5058334;28;20198;-39
2022/04/18 00:44:27;;;;;;;5.27;4.73;;;8.70;40.10;;;;;;5059283;28;20182;-39
2022/04/18 00:46:53;;;;;;;5.70;5.10;;;8.70;40.30;;;;;;5058202;28;20189;-39
2022/04/18 00:49:18;;;;;;;5.30;4.80;;;8.60;40.30;;;;;;5057953;28;20328;-38
2022/04/18 00:51:44;;;;;;;4.90;4.40;;;8.60;40.40;;;;;;5057173;28;20611;-39
2022/04/18 00:54:10;;;;;;;5.47;4.23;;;8.60;40.50;;;;;;5057887;28;20233;-38
2022/04/18 00:56:36;;;;;;;4.83;4.30;;;8.50;40.50;;;;;;5058879;28;20425;-41
2022/04/18 00:59:03;;;;;;;4.03;3.63;;;8.50;40.60;;;;;;5059260;28;20762;-38
2022/04/18 01:01:29;;;;;;;5.53;4.03;;;8.40;40.70;;;;;;5059864;28;20267;-39
2022/04/18 01:03:54;;;;;;;4.33;3.93;;;8.40;40.80;;;;;;5059670;28;20452;-38
2022/04/18 01:06:20;;;;;;;6.90;4.03;;;8.40;41.00;;;;;;5041503;28;20180;-39
2022/04/18 01:08:48;;;;;;;4.23;3.80;;;8.30;41.00;;;;;;5041558;28;20207;-39
2022/04/18 01:11:14;;;;;;;4.63;3.87;;;8.30;41.10;;;;;;5024897;28;20436;-38
2022/04/18 01:13:50;;;;;;;5.23;4.73;;;8.30;41.20;;;;;;5059308;28;20493;-38
2022/04/18 01:16:16;;;;;;;5.10;4.60;;;8.20;41.30;;;;;;5041449;28;20429;-39
2022/04/18 01:18:42;;;;;;;5.00;4.50;;;8.20;41.40;;;;;;5058844;28;20767;-39
2022/04/18 01:30:03;;;;;;;5.57;4.33;;;8.00;42.10;;;;;;5057335;28;20551;-38
2022/04/18 01:32:29;;;;;;;5.13;4.63;;;7.90;42.20;;;;;;5057410;28;20428;-38
2022/04/18 01:34:57;;;;;;;5.50;5.00;;;7.90;42.20;;;;;;5056560;28;20417;-39
2022/04/18 01:37:23;;;;;;;7.33;5.93;;;7.80;42.20;;;;;;5056390;28;20241;-38
2022/04/18 01:39:49;;;;;;;5.53;5.10;;;7.80;42.40;;;;;;5056305;28;20429;-38
2022/04/18 01:42:14;;;;;;;5.80;5.30;;;7.80;42.50;;;;;;5039615;28;20468;-39
2022/04/18 01:44:40;;;;;;;5.70;5.10;;;7.70;42.60;;;;;;5057286;28;20837;-39
2022/04/18 01:47:06;;;;;;;6.07;5.47;;;7.70;42.70;;;;;;5057352;28;20188;-40
2022/04/18 01:49:31;;;;;;;6.20;5.60;;;7.70;42.70;;;;;;5057444;28;20221;-38
2022/04/18 01:51:57;;;;;;;6.40;5.77;;;7.70;42.90;;;;;;5039992;28;20179;-38
2022/04/18 01:54:23;;;;;;;5.90;5.20;;;7.60;43.00;;;;;;5057001;28;20217;-38
2022/04/18 01:56:48;;;;;;;6.60;5.00;;;7.60;43.20;;;;;;5056502;28;20186;-38
2022/04/18 01:59:14;;;;;;;5.83;5.23;;;7.50;43.30;;;;;;5056072;28;20211;-37
2022/04/18 02:01:40;;;;;;;5.07;4.60;;;7.50;43.40;;;;;;5038749;28;20222;-38
2022/04/18 02:04:07;;;;;;;4.63;4.20;;;7.50;43.50;;;;;;5055866;28;20197;-38
2022/04/18 02:06:32;;;;;;;5.27;4.77;;;7.50;43.60;;;;;;5038965;28;20424;-39
2022/04/18 02:08:58;;;;;;;5.10;4.50;;;7.40;43.60;;;;;;5056433;28;20920;-38
2022/04/18 02:11:25;;;;;;;5.00;4.30;;;7.40;43.60;;;;;;5055834;28;20487;-41
2022/04/18 02:13:52;;;;;;;5.90;5.30;;;7.30;43.60;;;;;;5056354;28;20602;-39
2022/04/18 02:16:18;;;;;;;6.90;6.03;;;7.30;43.70;;;;;;5056341;28;20424;-40
2022/04/18 02:18:44;;;;;;;7.30;6.03;;;7.30;43.80;;;;;;5056610;28;20487;-42
2022/04/18 02:21:11;;;;;;;6.30;5.70;;;7.30;43.90;;;;;;5057057;28;20448;-39
2022/04/18 02:23:41;;;;;;;6.53;5.87;;;7.20;43.90;;;;;;5057541;28;20560;-41
2022/04/18 02:26:07;;;;;;;9.30;6.20;;;7.20;44.00;;;;;;5057952;28;20421;-40
2022/04/18 02:28:33;;;;;;;5.87;5.37;;;7.20;44.10;;;;;;5040708;28;21075;-41
2022/04/18 02:30:59;;;;;;;6.13;5.53;;;7.20;44.10;;;;;;5040442;28;20425;-38
2022/04/18 02:33:24;;;;;;;7.03;5.53;;;7.20;44.20;;;;;;5057058;28;20452;-37
2022/04/18 02:35:50;;;;;;;4.87;4.40;;;7.20;44.20;;;;;;5057834;28;20190;-41
2022/04/18 02:38:17;;;;;;;6.83;4.90;;;7.10;44.30;;;;;;5057318;28;20268;-39
2022/04/18 02:40:43;;;;;;;8.17;6.73;;;7.10;44.40;;;;;;5057034;28;20245;-39
2022/04/18 02:43:09;;;;;;;10.87;8.37;;;7.00;44.40;;;;;;5039409;28;20858;-40
2022/04/18 02:45:35;;;;;;;9.30;6.87;;;7.00;44.60;;;;;;5056533;28;20503;-39
2022/04/18 02:48:01;;;;;;;10.43;6.83;;;6.90;44.70;;;;;;5038983;28;20222;-40
2022/04/18 02:50:27;;;;;;;8.10;6.40;;;6.90;44.80;;;;;;5056360;28;20424;-40
2022/04/18 02:52:53;;;;;;;7.87;6.20;;;6.90;44.80;;;;;;5039480;28;20409;-38
2022/04/18 02:55:19;;;;;;;6.23;5.37;;;6.80;44.90;;;;;;5057210;28;20468;-40
2022/04/18 02:57:45;;;;;;;5.93;5.10;;;6.80;45.10;;;;;;5058037;28;20566;-41
2022/04/18 03:00:11;;;;;;;7.67;5.80;;;6.80;45.30;;;;;;5058116;28;20482;-39
2022/04/18 03:02:38;;;;;;;4.90;4.40;;;6.70;45.30;;;;;;5057720;28;20563;-39
2022/04/18 03:05:05;;;;;;;6.00;5.07;;;6.70;45.30;;;;;;5057988;28;20523;-39
2022/04/18 03:07:32;;;;;;;5.50;4.90;;;6.70;45.40;;;;;;5040274;28;20772;-41
2022/04/18 03:09:58;;;;;;;7.50;5.57;;;6.70;45.50;;;;;;5040043;28;20468;-39
2022/04/18 03:12:23;;;;;;;6.30;5.70;;;6.60;45.40;;;;;;5040020;28;20479;-40
2022/04/18 03:14:49;;;;;;;7.20;6.33;;;6.60;45.50;;;;;;5059673;28;20449;-39
2022/04/18 03:17:16;;;;;;;7.20;6.50;;;6.60;45.50;;;;;;5061391;28;20190;-41
2022/04/18 03:19:41;;;;;;;6.83;6.13;;;6.60;45.60;;;;;;5060646;28;20189;-38
2022/04/18 03:22:07;;;;;;;7.27;6.13;;;6.50;45.60;;;;;;5060455;28;20417;-39
2022/04/18 03:24:34;;;;;;;6.53;5.93;;;6.50;45.70;;;;;;5060817;28;20208;-38
2022/04/18 03:27:00;;;;;;;8.50;6.40;;;6.50;45.90;;;;;;5060465;28;20182;-39
2022/04/18 03:29:26;;;;;;;6.63;5.47;;;6.50;46.00;;;;;;5060724;28;20545;-38
2022/04/18 03:31:53;;;;;;;7.43;4.77;;;6.40;46.20;;;;;;5061416;28;20511;-38
2022/04/18 03:34:19;;;;;;;6.60;5.50;;;6.40;46.30;;;;;;5060669;28;20181;-40
2022/04/18 03:42:14;;;;;;;6.10;5.20;;;6.30;46.70;;;;;;5061583;28;20431;-39
2022/04/18 03:44:43;;;;;;;5.63;4.67;;;6.30;46.50;;;;;;5061881;28;20429;-39
2022/04/18 03:47:13;;;;;;;5.83;4.90;;;6.30;46.50;;;;;;5045015;28;20205;-38
2022/04/18 03:49:39;;;;;;;4.83;4.33;;;6.20;46.40;;;;;;5060975;28;20491;-39
2022/04/18 03:52:07;;;;;;;6.10;4.67;;;6.20;46.50;;;;;;5062174;28;20802;-39
2022/04/18 03:54:34;;;;;;;5.13;4.50;;;6.10;46.60;;;;;;5061317;28;20767;-38
2022/04/18 03:57:01;;;;;;;5.03;4.53;;;6.10;46.80;;;;;;5043919;28;20528;-38
2022/04/18 03:59:27;;;;;;;5.50;4.40;;;6.00;46.80;;;;;;5060364;28;20421;-38
2022/04/18 04:01:53;;;;;;;4.73;4.10;;;6.00;46.90;;;;;;5059520;28;20498;-39
2022/04/18 04:04:18;;;;;;;4.80;4.30;;;6.00;47.00;;;;;;5058949;28;20452;-39
2022/04/18 04:06:44;;;;;;;5.33;4.83;;;6.00;47.10;;;;;;5059301;28;20186;-38
2022/04/18 04:09:09;;;;;;;4.77;4.37;;;5.90;47.10;;;;;;5058984;28;20206;-40
2022/04/18 04:11:35;;;;;;;4.60;4.20;;;5.90;47.30;;;;;;5058735;28;20182;-38
2022/04/18 04:14:01;;;;;;;6.30;4.87;;;5.90;47.30;;;;;;5042137;28;20187;-39
2022/04/18 04:16:26;;;;;;;6.30;4.93;;;5.90;47.40;;;;;;5060371;28;20190;-38
2022/04/18 04:18:53;;;;;;;4.90;4.27;;;5.90;47.70;;;;;;5059966;28;20213;-42
2022/04/18 04:21:18;;;;;;;5.60;4.33;;;5.90;47.60;;;;;;5060000;28;20549;-38
2022/04/18 04:23:44;;;;;;;5.43;4.73;;;5.90;47.70;;;;;;5060354;28;20445;-42
2022/04/18 04:26:10;;;;;;;4.50;3.77;;;5.90;47.80;;;;;;5058860;28;20186;-47
2022/04/18 04:28:36;;;;;;;5.80;4.70;;;5.90;48.00;;;;;;5059475;28;20206;-47
2022/04/18 04:31:04;;;;;;;5.00;4.50;;;5.80;47.90;;;;;;5058144;28;20881;-48
2022/04/18 04:33:31;;;;;;;6.33;4.17;;;5.80;48.00;;;;;;5058888;28;20209;-45
2022/04/18 04:35:58;;;;;;;4.63;4.23;;;5.80;48.30;;;;;;5058587;28;20417;-46
2022/04/18 04:38:27;;;;;;;5.30;4.80;;;5.70;48.40;;;;;;5040526;28;20413;-44
2022/04/18 04:40:53;;;;;;;4.93;4.30;;;5.70;48.50;;;;;;5057268;28;20905;-44
2022/04/18 04:43:20;;;;;;;4.93;4.43;;;5.80;48.50;;;;;;5039803;28;20511;-45
2022/04/18 04:45:46;;;;;;;5.07;4.57;;;5.80;48.50;;;;;;5057944;28;20876;-47
2022/04/18 04:48:11;;;;;;;5.73;4.60;;;5.80;48.50;;;;;;5057151;28;20464;-47
2022/04/18 04:50:39;;;;;;;5.13;4.70;;;5.80;48.50;;;;;;5056666;28;20416;-47
2022/04/18 04:53:05;;;;;;;6.10;4.93;;;5.80;48.60;;;;;;5056727;28;20198;-48
2022/04/18 04:55:31;;;;;;;6.60;4.77;;;5.80;48.70;;;;;;5058323;28;20741;-47
2022/04/18 04:57:57;;;;;;;7.13;4.50;;;5.80;48.80;;;;;;5058805;28;20183;-47
2022/04/18 05:00:24;;;;;;;6.67;4.77;;;5.80;49.00;;;;;;5058796;28;20609;-47
2022/04/18 05:02:50;;;;;;;5.50;4.70;;;5.70;49.30;;;;;;5058876;28;20210;-47
2022/04/18 05:05:15;;;;;;;5.10;4.60;;;5.80;49.60;;;;;;5059040;28;20467;-47
2022/04/18 05:07:41;;;;;;;6.37;5.37;;;5.80;49.50;;;;;;5058317;28;20580;-47
2022/04/18 05:10:07;;;;;;;6.00;4.63;;;5.80;49.40;;;;;;5059508;28;20580;-47
2022/04/18 05:12:33;;;;;;;5.33;4.73;;;5.80;49.40;;;;;;5057306;28;20233;-47
2022/04/18 05:15:05;;;;;;;4.70;4.17;;;5.90;49.50;;;;;;5056858;28;20475;-47
2022/04/18 05:17:31;;;;;;;5.97;5.00;;;5.90;49.40;;;;;;5057618;28;20201;-47
2022/04/18 05:19:57;;;;;;;5.73;5.23;;;6.00;49.40;;;;;;5057697;28;20703;-47
2022/04/18 05:22:23;;;;;;;5.53;5.03;;;6.00;49.40;;;;;;5057170;28;20435;-47
2022/04/18 05:24:49;;;;;;;6.33;5.17;;;6.10;49.60;;;;;;5057864;28;20256;-47
2022/04/18 05:27:15;;;;;;;6.13;5.63;;;6.10;49.70;;;;;;5057973;28;20846;-47
2022/04/18 05:29:44;;;;;;;6.43;4.63;;;6.20;49.70;;;;;;5058312;28;20466;-47
2022/04/18 05:32:11;;;;;;;6.30;5.20;;;6.20;49.70;;;;;;5058637;28;20483;-47
2022/04/18 05:34:37;;;;;;;6.80;5.63;;;6.30;49.70;;;;;;5058672;28;20432;-47
2022/04/18 05:37:04;;;;;;;6.37;5.00;;;6.30;49.60;;;;;;5058108;28;20460;-47
2022/04/18 05:39:30;;;;;;;5.53;4.93;;;6.40;49.80;;;;;;5058619;28;20259;-47
2022/04/18 05:41:58;;;;;;;5.77;5.20;;;6.50;49.80;;;;;;5058593;28;20417;-47
2022/04/18 05:44:24;;;;;;;6.70;5.30;;;6.60;49.70;;;;;;5057621;28;20432;-48
2022/04/18 05:46:49;;;;;;;6.17;5.57;;;6.70;49.70;;;;;;5056909;28;20423;-48
2022/04/18 05:49:15;;;;;;;6.60;5.37;;;6.80;49.90;;;;;;5056351;28;20214;-47
2022/04/18 05:51:41;;;;;;;7.97;5.83;;;6.90;50.10;;;;;;5057022;28;20191;-48
2022/04/18 05:54:07;;;;;;;8.70;6.23;;;7.00;50.40;;;;;;5039277;28;20752;-47
2022/04/18 05:56:32;;;;;;;6.80;6.20;;;7.10;50.30;;;;;;5055784;28;20182;-48
2022/04/18 05:58:59;;;;;;;7.13;6.53;;;7.20;50.20;;;;;;5038766;28;20194;-48
2022/04/18 06:01:25;;;;;;;6.93;6.03;;;7.40;50.20;;;;;;5038779;28;20199;-46
2022/04/18 06:03:50;;;;;;;8.73;6.53;;;7.50;49.90;;;;;;5038211;28;20428;-48
2022/04/18 06:06:16;;;;;;;7.20;5.40;;;7.70;49.60;;;;;;5056641;28;20191;-48
2022/04/18 06:08:42;;;;;;;6.40;5.70;;;7.90;49.30;;;;;;5055420;28;20214;-46
2022/04/18 06:11:08;;;;;;;6.93;6.30;;;8.10;48.90;;;;;;5055080;28;20178;-45
2022/04/18 06:13:33;;;;;;;7.50;6.10;;;8.30;48.40;;;;;;5053905;28;20443;-46
2022/04/18 06:15:59;;;;;;;6.90;6.30;;;8.50;47.90;;;;;;5018352;28;20197;-46
2022/04/18 06:18:26;;;;;;;6.47;5.60;;;8.70;47.30;;;;;;5051540;28;20876;-46
2022/04/18 06:20:52;;;;;;;8.97;6.00;;;8.90;46.90;;;;;;5050717;28;20426;-46
2022/04/18 06:23:18;;;;;;;6.07;5.00;;;9.10;46.50;;;;;;5052253;28;20434;-46
2022/04/18 06:25:44;;;;;;;7.17;4.90;;;9.40;46.10;;;;;;5052605;28;20198;-47
2022/04/18 06:28:10;;;;;;;5.40;4.90;;;9.60;45.30;;;;;;5053071;28;20565;-46
2022/04/18 06:30:36;;;;;;;5.63;5.00;;;9.80;44.70;;;;;;5054554;28;20427;-46
2022/04/18 06:33:01;;;;;;;6.33;5.70;;;10.00;43.50;;;;;;5055980;28;20421;-46
2022/04/18 06:35:27;;;;;;;5.83;5.00;;;10.30;43.20;;;;;;5040380;28;20257;-46
2022/04/18 06:37:53;;;;;;;4.43;4.10;;;10.50;42.80;;;;;;5057485;28;20474;-47
2022/04/18 06:40:18;;;;;;;4.50;4.10;;;10.80;42.10;;;;;;5039202;28;20216;-47
2022/04/18 06:42:45;;;;;;;4.50;4.10;;;11.00;41.30;;;;;;5068301;28;20197;-47
2022/04/18 06:45:10;;;;;;;4.20;3.80;;;11.30;40.90;;;;;;5071144;28;20466;-46
2022/04/18 06:47:36;;;;;;;4.33;3.53;;;11.60;40.20;;;;;;5071528;28;20483;-47
2022/04/18 06:50:08;;;;;;;4.13;3.67;;;11.80;39.50;;;;;;5069932;28;20295;-47
2022/04/18 06:52:41;;;;;;;4.73;3.33;;;12.10;39.10;;;;;;5070352;28;20189;-47
2022/04/18 06:55:08;;;;;;;5.40;3.50;;;12.40;38.70;;;;;;5069704;28;20470;-47
2022/04/18 06:57:34;;;;;;;5.17;3.93;;;12.70;38.40;;;;;;5071196;28;20416;-47
2022/04/18 07:00:00;;;;;;;4.80;3.93;;;12.90;37.80;;;;;;5070719;28;20444;-47
2022/04/18 07:02:26;;;;;;;4.87;4.03;;;13.10;37.50;;;;;;5071549;28;20504;-43
2022/04/18 07:04:53;;;;;;;4.87;4.40;;;13.40;37.10;;;;;;5070361;28;20542;-44
2022/04/18 07:07:18;;;;;;;5.20;4.03;;;13.60;36.80;;;;;;5071069;28;20191;-43
2022/04/18 07:09:44;;;;;;;5.67;4.13;;;13.90;36.50;;;;;;5069911;28;20471;-45
2022/04/18 07:12:10;;;;;;;4.23;3.80;;;14.10;35.90;;;;;;5069569;28;20431;-46
2022/04/18 07:14:36;;;;;;;4.17;3.63;;;14.30;35.30;;;;;;5069724;28;20181;-47
2022/04/18 07:17:03;;;;;;;4.00;3.60;;;14.50;35.30;;;;;;5069536;28;20527;-45
2022/04/18 07:19:28;;;;;;;4.17;3.70;;;14.70;35.10;;;;;;5034932;28;20428;-44
2022/04/18 07:21:55;;;;;;;4.37;3.73;;;14.80;34.90;;;;;;5068693;28;20545;-45
2022/04/18 07:24:22;;;;;;;4.00;3.70;;;15.00;34.20;;;;;;5069778;28;20242;-45
2022/04/18 07:26:48;;;;;;;4.47;4.03;;;15.10;33.90;;;;;;5071001;28;20424;-45
2022/04/18 07:29:14;;;;;;;4.77;4.10;;;15.30;33.70;;;;;;5070207;28;20485;-44
2022/04/18 07:31:39;;;;;;;4.50;4.10;;;15.40;33.30;;;;;;5070894;28;20526;-45
2022/04/18 07:34:05;;;;;;;5.33;4.37;;;15.40;33.00;;;;;;5075144;28;20174;-44
2022/04/18 07:36:31;;;;;;;4.33;3.93;;;15.50;32.80;;;;;;5069796;28;20215;-46
2022/04/18 07:38:56;;;;;;;6.33;4.47;;;15.50;32.80;;;;;;5055542;28;20194;-45
2022/04/18 07:41:25;;;;;;;4.03;3.60;;;15.60;32.80;;;;;;5054691;28;20238;-43
2022/04/18 07:43:52;;;;;;;4.80;4.40;;;15.80;32.90;;;;;;5055261;28;20183;-45
2022/04/18 07:46:18;;;;;;;5.30;4.10;;;15.90;32.50;;;;;;5055166;28;20433;-42
2022/04/18 07:48:47;;;;;;;4.53;3.30;;;16.00;32.40;;;;;;5055896;28;20573;-39
2022/04/18 07:51:31;;;;;;;10.10;5.27;;;16.30;37.20;;;;;;5061050;28;20720;-40
2022/04/18 07:54:01;;;;;;;13.93;7.13;;;16.60;38.80;;;;;;5070048;28;20432;-41
2022/04/18 07:56:26;;;;;;;14.60;8.00;;;17.10;39.40;;;;;;5066629;28;20427;-41
2022/04/18 07:58:53;;;;;;;13.57;7.27;;;17.60;39.70;;;;;;5074756;28;20522;-42
2022/04/18 08:01:20;;;;;;;12.47;5.90;;;18.00;39.00;;;;;;5075904;28;20285;-44
2022/04/18 08:03:46;;;;;;;8.30;5.67;;;18.50;38.90;;;;;;5076894;28;20872;-41
2022/04/18 08:06:12;;;;;;;8.43;5.27;;;18.80;38.30;;;;;;5076426;28;20403;-42
2022/04/18 08:08:38;;;;;;;7.30;4.50;;;19.20;37.50;;;;;;5060126;28;20470;-46
2022/04/18 08:11:04;;;;;;;4.30;3.90;;;19.50;36.40;;;;;;5078072;28;20419;-46
2022/04/18 08:13:30;;;;;;;7.47;4.93;;;19.70;34.00;;;;;;5060553;28;20420;-45
2022/04/18 08:15:56;;;;;;;6.67;4.37;;;19.90;34.50;;;;;;5079295;28;20851;-47
2022/04/18 08:18:22;;;;;;;4.70;4.30;;;20.20;35.50;;;;;;5079542;28;20420;-47
2022/04/18 08:20:48;;;;;;;6.53;4.53;;;20.40;34.60;;;;;;5076050;28;20183;-38
2022/04/18 08:23:14;;;;;;;6.57;4.00;;;20.60;33.30;;;;;;5058654;28;20445;-37
2022/04/18 08:25:40;;;;;;;4.67;4.07;;;20.70;33.00;;;;;;5058987;28;20429;-39
2022/04/18 08:28:06;;;;;;;5.90;3.87;;;21.00;32.60;;;;;;5075756;28;20187;-37
2022/04/18 08:30:31;;;;;;;6.10;3.90;;;21.10;33.70;;;;;;5077194;28;20506;-50
2022/04/18 08:32:57;;;;;;;4.63;3.67;;;21.40;32.70;;;;;;5076756;28;20184;-42
2022/04/18 08:35:23;;;;;;;4.20;3.80;;;21.70;32.90;;;;;;5076953;28;20298;-42
2022/04/18 08:37:48;;;;;;;4.40;3.70;;;22.00;32.30;;;;;;5077161;28;20553;-41
2022/04/18 08:40:14;;;;;;;4.07;3.77;;;22.40;32.50;;;;;;5058918;28;20201;-41
2022/04/18 08:42:41;;;;;;;4.90;3.97;;;22.60;31.30;;;;;;5077267;28;20652;-45
2022/04/18 08:45:09;;;;;;;4.97;4.47;;;22.80;31.50;;;;;;5076772;28;20187;-41
2022/04/18 08:53:09;;;;;;;4.97;4.00;;;22.80;29.80;;;;;;5078088;28;20424;-46
2022/04/18 08:55:35;;;;;;;5.03;3.37;;;23.10;29.80;;;;;;5079974;28;20537;-44
2022/04/18 08:58:01;;;;;;;3.80;3.13;;;23.40;29.20;;;;;;5061918;28;20750;-45
2022/04/18 09:00:27;;;;;;;4.83;3.53;;;23.80;29.30;;;;;;5079138;28;20691;-44
2022/04/18 09:02:54;;;;;;;3.93;3.10;;;24.10;29.30;;;;;;5078093;28;20196;-41
2022/04/18 09:05:19;;;;;;;3.60;3.30;;;24.40;29.10;;;;;;5079387;28;20414;-44
2022/04/18 09:07:58;;;;;;;4.10;3.10;;;24.70;28.20;;;;;;5079286;28;20488;-40
2022/04/18 09:10:24;;;;;;;3.13;2.83;;;24.90;28.30;;;;;;5055722;28;20217;-45
2022/04/18 09:12:50;;;;;;;3.90;3.40;;;25.30;28.40;;;;;;5073054;28;20445;-43
2022/04/18 09:15:30;;;;;;;4.17;3.77;;;25.50;27.80;;;;;;5073312;28;20425;-41
2022/04/18 09:18:06;;;;;;;5.07;4.67;;;25.60;26.90;;;;;;5058305;28;20414;-43
2022/04/18 09:20:42;;;;;;;3.90;3.60;;;25.50;26.30;;;;;;5057584;28;20419;-43
2022/04/18 09:23:20;;;;;;;4.17;3.87;;;25.70;26.40;;;;;;5056838;28;20841;-44
2022/04/18 09:25:46;;;;;;;4.70;4.30;;;25.90;26.20;;;;;;5056068;28;20415;-42
2022/04/18 09:28:13;;;;;;;4.87;4.40;;;25.90;25.30;;;;;;5038028;28;21079;-45
2022/04/18 09:30:39;;;;;;;4.97;4.50;;;25.90;24.90;;;;;;5039024;28;20213;-44
2022/04/18 09:33:06;;;;;;;5.07;3.70;;;25.90;24.70;;;;;;5056605;28;20876;-44
2022/04/18 09:35:33;;;;;;;3.73;3.40;;;26.10;24.90;;;;;;5057900;28;20255;-41
2022/04/18 09:38:06;;;;;;;4.10;3.70;;;26.50;25.30;;;;;;5040232;28;20721;-42
2022/04/18 09:40:32;;;;;;;4.70;4.30;;;26.70;25.30;;;;;;5056853;28;20908;-44
2022/04/18 09:42:58;;;;;;;4.73;4.33;;;26.90;24.80;;;;;;5054778;28;20515;-43
2022/04/18 09:45:24;;;;;;;4.70;3.50;;;27.30;24.80;;;;;;5055315;28;20458;-39
2022/04/18 09:48:14;;;;;;;3.60;3.30;;;27.60;24.80;;;;;;5038798;28;20425;-38
2022/04/18 09:50:59;;;;;;;4.30;3.90;;;28.00;24.90;;;;;;5038752;28;20424;-41
2022/04/18 09:53:25;;;;;;;4.67;4.00;;;28.20;24.90;;;;;;5039081;28;20854;-41
2022/04/18 09:55:52;;;;;;;4.20;3.80;;;28.50;24.80;;;;;;5055907;28;20895;-42
2022/04/18 09:58:18;;;;;;;4.20;3.80;;;28.90;24.90;;;;;;5054428;28;20712;-41
2022/04/18 10:00:44;;;;;;;3.87;3.57;;;29.20;24.80;;;;;;5035994;28;20420;-42
2022/04/18 10:03:10;;;;;;;4.30;3.90;;;29.60;24.60;;;;;;5034509;28;20514;-42
2022/04/18 10:05:36;;;;;;;4.43;4.03;;;29.90;24.60;;;;;;5052664;28;20190;-44
2022/04/18 10:08:03;;;;;;;5.00;4.57;;;30.10;24.20;;;;;;5053088;28;20192;-45
2022/04/18 10:10:34;;;;;;;4.60;4.20;;;30.30;24.10;;;;;;5053877;28;20701;-42
2022/04/18 10:13:00;;;;;;;4.67;4.27;;;30.60;23.70;;;;;;5054733;28;20441;-42
2022/04/18 10:15:27;;;;;;;4.80;4.40;;;30.80;23.40;;;;;;5055156;28;20715;-41
2022/04/18 10:17:53;;;;;;;3.90;3.60;;;31.00;23.30;;;;;;5054268;28;20420;-40
2022/04/18 10:21:00;;;;;;;5.00;4.60;;;31.30;23.50;;;;;;5056061;28;20529;-41
2022/04/18 10:24:02;;;;;;;7.83;4.30;;;31.60;23.50;;;;;;5008162;28;20436;-40
2022/04/18 10:26:28;;;;;;;5.50;5.00;;;31.80;22.80;;;;;;5053347;28;20394;-39
2022/04/18 10:28:55;;;;;;;4.57;4.17;;;32.10;23.20;;;;;;5053155;28;20476;-43
2022/04/18 10:31:27;;;;;;;5.67;5.17;;;32.20;22.50;;;;;;5036983;28;20211;-40
2022/04/18 10:33:52;;;;;;;4.80;4.40;;;32.10;21.90;;;;;;5055121;28;20429;-43
2022/04/18 10:36:31;;;;;;;3.90;3.53;;;31.90;22.30;;;;;;5037585;28;20489;-42
2022/04/18 10:39:02;;;;;;;4.13;3.73;;;32.00;22.80;;;;;;5055163;28;20426;-44
2022/04/18 10:41:33;;;;;;;4.67;3.80;;;32.30;22.70;;;;;;5054329;28;20415;-40
2022/04/18 10:44:00;;;;;;;4.13;3.83;;;32.60;22.50;;;;;;5056218;28;20510;-44
2022/04/18 10:46:26;;;;;;;4.23;3.83;;;32.80;22.30;;;;;;5055293;28;20394;-40
2022/04/18 10:48:56;;;;;;;4.13;3.83;;;32.90;22.00;;;;;;5056952;28;20456;-44
2022/04/18 10:51:36;;;;;;;4.47;4.07;;;33.20;21.90;;;;;;5038720;28;20667;-41
2022/04/18 10:54:16;;;;;;;4.30;3.90;;;33.50;22.10;;;;;;5055857;28;20430;-42
2022/04/18 10:57:05;;;;;;;4.33;3.93;;;33.80;22.10;;;;;;5055301;28;20808;-43
2022/04/18 10:59:45;;;;;;;4.73;4.30;;;34.00;21.80;;;;;;5055717;28;20554;-43
2022/04/18 11:02:42;;;;;;;3.60;3.30;;;34.30;22.00;;;;;;5054485;28;20574;-41
2022/04/18 11:05:08;;;;;;;3.70;3.40;;;34.70;22.00;;;;;;5054510;28;20866;-42
2022/04/18 11:07:42;;;;;;;3.80;3.50;;;35.10;21.80;;;;;;5054680;28;20388;-42
2022/04/18 11:10:20;;;;;;;4.30;4.00;;;35.10;21.40;;;;;;5052718;28;20694;-41
2022/04/18 11:12:46;;;;;;;3.73;3.43;;;35.30;21.30;;;;;;5055095;28;20813;-42
2022/04/18 11:15:12;;;;;;;5.13;4.37;;;35.40;21.40;;;;;;5051731;28;20718;-41
2022/04/18 11:17:41;;;;;;;3.87;3.47;;;35.60;21.30;;;;;;5053367;28;20943;-42
2022/04/18 11:20:26;;;;;;;4.17;3.87;;;36.10;21.30;;;;;;5054094;28;20747;-41
2022/04/18 11:23:17;;;;;;;4.20;3.80;;;36.10;21.20;;;;;;5054802;28;20386;-42
2022/04/18 11:25:59;;;;;;;3.83;3.53;;;36.30;21.10;;;;;;5054502;28;20821;-41
2022/04/18 11:28:39;;;;;;;4.30;4.00;;;36.40;21.00;;;;;;5063570;28;20546;-42
2022/04/18 11:31:17;;;;;;;4.00;3.70;;;36.60;20.80;;;;;;5060971;28;20764;-41
2022/04/18 11:33:43;;;;;;;3.67;3.37;;;36.60;20.50;;;;;;5074219;28;20855;-41
2022/04/18 11:36:10;;;;;;;3.80;3.50;;;36.60;20.40;;;;;;5076815;28;20890;-41
2022/04/18 11:38:36;;;;;;;4.23;3.37;;;36.60;20.50;;;;;;5062296;28;20424;-44
2022/04/18 11:41:12;;;;;;;3.50;3.20;;;36.60;20.10;;;;;;5079372;28;20394;-41
2022/04/18 11:43:38;;;;;;;4.63;4.23;;;36.70;20.60;;;;;;5080060;28;20198;-42
2022/04/18 11:46:07;;;;;;;4.33;3.93;;;36.90;20.60;;;;;;5079933;28;20417;-44
2022/04/18 11:48:34;;;;;;;3.70;3.40;;;37.10;20.10;;;;;;5076629;28;20456;-42
2022/04/18 11:51:00;;;;;;;3.20;3.00;;;37.30;20.20;;;;;;5059556;28;20432;-42
2022/04/18 11:53:35;;;;;;;3.53;3.23;;;37.20;20.00;;;;;;5077455;28;20420;-41
2022/04/18 11:56:05;;;;;;;3.43;3.13;;;37.70;20.50;;;;;;5074672;28;20468;-41
2022/04/18 11:58:36;;;;;;;3.37;3.07;;;38.20;20.50;;;;;;5075453;28;20931;-45
2022/04/18 12:06:49;;;;;;;4.13;3.73;;;38.60;19.80;;;;;;5059959;28;20712;-45
2022/04/18 12:09:16;;;;;;;4.77;4.37;;;38.70;19.70;;;;;;5056599;28;20562;-41
2022/04/18 12:11:42;;;;;;;4.37;4.00;;;39.10;19.40;;;;;;5074947;28;20415;-41
2022/04/18 12:14:08;;;;;;;4.07;3.70;;;38.90;19.20;;;;;;5040667;28;20603;-38
2022/04/18 12:16:35;;;;;;;3.93;3.53;;;39.00;19.60;;;;;;5077683;28;20411;-42
2022/04/18 12:19:01;;;;;;;3.30;3.10;;;38.90;19.60;;;;;;5060920;28;20438;-41
2022/04/18 12:21:27;;;;;;;4.10;3.70;;;38.50;18.90;;;;;;5078018;28;20846;-40
2022/04/18 12:23:55;;;;;;;3.13;2.90;;;38.40;18.90;;;;;;5079753;28;20490;-42
2022/04/18 12:26:25;;;;;;;3.90;3.60;;;38.40;19.10;;;;;;5077342;28;20419;-45
2022/04/18 12:29:12;;;;;;;3.60;3.30;;;38.60;19.20;;;;;;5076604;28;20538;-39
2022/04/18 12:31:41;;;;;;;3.87;3.57;;;38.70;19.30;;;;;;5076474;28;20845;-40
2022/04/18 12:34:19;;;;;;;3.70;3.40;;;38.70;19.70;;;;;;5077146;28;20485;-44
2022/04/18 12:36:45;;;;;;;3.50;3.20;;;38.90;19.50;;;;;;5076273;28;20737;-44
2022/04/18 12:39:21;;;;;;;3.93;3.53;;;38.90;19.00;;;;;;5076833;28;20426;-40
2022/04/18 12:41:49;;;;;;;4.47;4.17;;;38.90;18.90;;;;;;5077522;28;20842;-42
2022/04/18 12:44:15;;;;;;;4.50;4.20;;;38.90;18.80;;;;;;5077899;28;20461;-43
2022/04/18 12:46:41;;;;;;;4.70;4.30;;;38.90;19.00;;;;;;5077270;28;20426;-41
2022/04/18 12:49:09;;;;;;;4.70;3.80;;;38.90;18.90;;;;;;5060496;28;20252;-42
2022/04/18 12:51:40;;;;;;;4.27;3.67;;;38.90;19.00;;;;;;5077768;28;20442;-40
2022/04/18 12:54:21;;;;;;;4.60;4.13;;;38.90;19.00;;;;;;5075701;28;20488;-40
2022/04/18 12:56:48;;;;;;;4.00;3.70;;;38.70;18.90;;;;;;5074894;28;20449;-41
2022/04/18 12:59:14;;;;;;;5.13;4.33;;;38.70;19.30;;;;;;5075588;28;20442;-39
2022/04/18 13:01:40;;;;;;;5.37;4.87;;;38.80;19.50;;;;;;5056492;28;20607;-40
2022/04/18 13:04:26;;;;;;;4.33;4.03;;;38.80;19.20;;;;;;5073751;28;20921;-42
2022/04/18 13:07:03;;;;;;;4.80;4.40;;;38.70;19.10;;;;;;5074884;28;20419;-41
2022/04/18 13:09:29;;;;;;;3.97;3.40;;;38.60;19.20;;;;;;5076451;28;20471;-45
2022/04/18 13:12:05;;;;;;;3.87;3.57;;;38.90;20.40;;;;;;5059985;28;20410;-42
2022/04/18 13:14:32;;;;;;;3.77;3.23;;;39.00;20.50;;;;;;5075178;28;20175;-42
2022/04/18 13:17:06;;;;;;;4.70;3.90;;;39.00;21.00;;;;;;5058016;28;20421;-43
2022/04/18 13:19:32;;;;;;;3.70;3.40;;;39.00;20.80;;;;;;5075975;28;20500;-42